Αναφορές Αεροδρομίων

 

KSJC - San Jose, California, USA
Distance from station: ΒΑ 14km
Ενημερώθηκε: 20/10/2019 11:17
Σχεδόν νεφελώδης
Σχεδόν νεφελώδης
 Ανεμος από calm
Ανεμος: Απνοια
Θερμοκρασία: 13°C
Σημείο Δρόσου: 12°C
Υγρασία: 94%
Βαρόμετρο: 1019 hPa
Clouds: Σχεδόν νεφελώδης
Visibility: 16 km
Cloud details: Σχεδόν νεφελώδης 274 m
2019/10/20 08:17 KSJC 200817Z AUTO 00000KT 10SM BKN009 13/12 A3009 RMK AO2 T01280117
KNUQ - Moffett Nas/Mtn, California, USA
Distance from station: Β 14km
Ενημερώθηκε: 20/10/2019 10:56

 
Βαρόμετρο: 1019 hPa
2019/10/20 07:56 KNUQ 200756Z A3009 RMK AO2 SLP193 PWINO $
 
KPAO - Palo Alto, California, USA
Distance from station: ΒΒΔ 23km
Ενημερώθηκε: 20/10/2019 06:47
NOT Current
Μερικώς νεφελώδης
Μερικώς νεφελώδης
 Ανεμος από ΒΔ
Ανεμος: ΒΔ 11 km/h
Θερμοκρασία: 14°C
Σημείο Δρόσου: 11°C
Υγρασία: 82%
Βαρόμετρο: 1018.3 hPa
Clouds: Μερικώς νεφελώδης
Visibility: 16 km
Cloud details: Μερικώς νεφελώδης 610 m
2019/10/20 03:47 KPAO 200347Z 32006KT 10SM SCT020 14/11 A3007 RMK LAST
KRHV - San Jose/Reid, California, USA
Distance from station: ΑΒΑ 19km
Ενημερώθηκε: 20/10/2019 07:55
NOT Current
Μερικώς νεφελώδης
Μερικώς νεφελώδης
 Ανεμος από calm
Ανεμος: Απνοια
Θερμοκρασία: 14°C
Σημείο Δρόσου: 12°C
Υγρασία: 88%
Βαρόμετρο: 1018.6 hPa
Clouds: Μερικώς νεφελώδης
Visibility: 16 km
Cloud details: Few Clouds 305 m
Μερικώς νεφελώδης 914 m
2019/10/20 04:55 KRHV 200455Z 00000KT 10SM FEW010 SCT030 14/12 A3008 RMK LAST
 
KOAK - Oakland, California, USA
Distance from station: ΒΒΔ 50km
Ενημερώθηκε: 20/10/2019 10:53
Shallow fog, Μερικώς νεφελώδης
Shallow fog, Μερικώς νεφελώδης
 Ανεμος από Ν
Ανεμος: Ν 6 km/h
Θερμοκρασία: 14°C
Σημείο Δρόσου: 12°C
Υγρασία: 88%
Βαρόμετρο: 1019 hPa
Περίληψη: Shallow Fog
Clouds: Μερικώς νεφελώδης
Visibility: 16 km
Cloud details: Μερικώς νεφελώδης 213 m
2019/10/20 07:53 KOAK 200753Z 18003KT 10SM MIFG SCT007 14/12 A3009 RMK AO2 SLP190 T01390117 402000089
KSQL - San Carlos Airpo, California, USA
Distance from station: ΒΔ 34km
Ενημερώθηκε: 20/10/2019 06:47
NOT Current
Μερικώς νεφελώδης
Μερικώς νεφελώδης
 Ανεμος από calm
Ανεμος: Απνοια
Θερμοκρασία: 14°C
Σημείο Δρόσου: 12°C
Υγρασία: 88%
Βαρόμετρο: 1018.6 hPa
Clouds: Μερικώς νεφελώδης
Visibility: 16 km
Cloud details: Μερικώς νεφελώδης 488 m
2019/10/20 03:47 KSQL 200347Z 00000KT 10SM SCT016 14/12 A3008 RMK LAST
 
KSFO - San Francisco, California, USA
Distance from station: ΒΔ 49km
Ενημερώθηκε: 20/10/2019 10:56
Αίθριος
Αίθριος
 Ανεμος από calm
Ανεμος: Απνοια
Θερμοκρασία: 13°C
Σημείο Δρόσου: 10°C
Υγρασία: 82%
Βαρόμετρο: 1018.6 hPa
Clouds: Αίθριος
Visibility: 16 km
2019/10/20 07:56 KSFO 200756Z 00000KT 10SM CLR 13/10 A3008 RMK AO2 SLP186 T01330100 402170122
KE16 - San Martin, California, USA
Distance from station: ΑΝΑ 43km
Ενημερώθηκε: 20/10/2019 11:15
Αίθριος
Αίθριος
 Ανεμος από ΒΒΔ
Ανεμος: ΒΒΔ 9 km/h
Θερμοκρασία: 12°C
Σημείο Δρόσου: 11°C
Υγρασία: 94%
Βαρόμετρο: 1019 hPa
Clouds: Αίθριος
Visibility: 16 km
2019/10/20 08:15 KE16 200815Z AUTO 34005KT 10SM CLR 12/11 A3009 RMK AO2
 
KWVI - Watsonville, California, USA
Distance from station: ΝΝΑ 44km
Ενημερώθηκε: 20/10/2019 11:18
Συννεφιά
Συννεφιά
 Ανεμος από calm
Ανεμος: Απνοια
Θερμοκρασία: 14°C
Σημείο Δρόσου: 13°C
Υγρασία: 94%
Βαρόμετρο: 1018.6 hPa
Clouds: Συννεφιά
Visibility: 16 km
Cloud details: Συννεφιά 183 m
2019/10/20 08:18 KWVI 200818Z AUTO 00000KT 10SM OVC006 14/13 A3008 RMK AO2 T01440128
KHAF - Half Moon Bay, California, USA
Distance from station: ΔΒΔ 50km
Ενημερώθηκε: 20/10/2019 11:20
Fog, Συννεφιά
Fog, Συννεφιά
 Ανεμος από calm
Ανεμος: Απνοια
Θερμοκρασία: 9°C
Σημείο Δρόσου: 9°C
Υγρασία: 100%
Βαρόμετρο: 1019 hPa
Περίληψη: Fog
Clouds: Συννεφιά
Visibility: 0.8 km
Cloud details: Συννεφιά 91 m
2019/10/20 08:20 KHAF 200820Z AUTO 00000KT 1/2SM FG OVC003 09/09 A3009 RMK AO2
 
KHWD - Hayward, California, USA
Distance from station: Β 44km
Ενημερώθηκε: 20/10/2019 10:54
Συννεφιά
Συννεφιά
 Ανεμος από ΝΝΔ
Ανεμος: ΝΝΔ 6 km/h
Θερμοκρασία: 14°C
Σημείο Δρόσου: 12°C
Υγρασία: 88%
Βαρόμετρο: 1018.6 hPa
Clouds: Συννεφιά
Visibility: 16 km
Cloud details: Συννεφιά 335 m
2019/10/20 07:54 KHWD 200754Z AUTO 20003KT 10SM OVC011 14/12 A3008 RMK AO2 SLP196 T01390122 401940100
KLVK - Livermore, California, USA
Distance from station: ΒΒΑ 51km
Ενημερώθηκε: 20/10/2019 10:53
Συννεφιά
Συννεφιά
 Ανεμος από calm
Ανεμος: Απνοια
Θερμοκρασία: 12°C
Σημείο Δρόσου: 11°C
Υγρασία: 94%
Βαρόμετρο: 1018.6 hPa
Clouds: Συννεφιά
Visibility: 11 km
Cloud details: Συννεφιά 183 m
2019/10/20 07:53 KLVK 200753Z AUTO 00000KT 7SM OVC006 12/11 A3008 RMK AO2 SLP183 T01220111 402170078